createdAt,value
2022-11-16T00:02:13.895Z,98750.59
2022-11-16T00:04:40.892Z,98751.50
2022-11-16T00:07:08.170Z,98716.53
2022-11-16T00:09:35.064Z,98749.84
2022-11-16T00:12:04.929Z,98742.63
2022-11-16T00:14:34.191Z,98735.66
2022-11-16T00:17:01.335Z,98747.34
2022-11-16T00:19:28.804Z,98752.19
2022-11-16T00:21:55.550Z,98740.19
2022-11-16T00:24:23.481Z,98731.09
2022-11-16T00:26:51.117Z,98735.06
2022-11-16T00:29:23.016Z,98733.06
2022-11-16T00:31:50.557Z,98726.38
2022-11-16T00:34:18.424Z,98722.25
2022-11-16T00:36:45.337Z,98731.38
2022-11-16T00:39:13.441Z,98728.28
2022-11-16T00:41:40.530Z,98722.06
2022-11-16T00:44:07.370Z,98716.97
2022-11-16T00:46:34.380Z,98709.56
2022-11-16T00:49:01.096Z,98713.34
2022-11-16T00:51:27.685Z,98709.06
2022-11-16T00:53:54.619Z,98706.84
2022-11-16T00:56:21.249Z,98706.22
2022-11-16T04:43:00.479Z,98649.06
2022-11-16T04:45:46.464Z,98655.56
2022-11-16T04:48:14.594Z,98648.56
2022-11-16T04:50:41.381Z,98637.41
2022-11-16T04:53:08.367Z,98656.19
2022-11-16T04:55:35.681Z,98653.47
2022-11-16T04:58:02.834Z,98660.00
2022-11-16T05:00:30.037Z,98647.06
2022-11-16T05:03:01.078Z,98657.94
2022-11-16T05:05:28.447Z,98653.81
2022-11-16T05:07:55.035Z,98642.03
2022-11-16T05:10:21.967Z,98645.53
2022-11-16T05:12:48.656Z,98639.44
2022-11-16T05:15:17.756Z,98648.63
2022-11-16T05:17:44.563Z,98646.25
2022-11-16T05:20:30.651Z,98649.47
2022-11-16T05:22:58.688Z,98638.28
2022-11-16T05:25:26.136Z,98643.78
2022-11-16T05:27:52.976Z,98649.13
2022-11-16T05:30:19.818Z,98647.06
2022-11-16T05:32:46.948Z,98642.16
2022-11-16T05:35:13.584Z,98646.19
2022-11-16T05:37:40.322Z,98643.59
2022-11-16T05:40:07.759Z,98645.25
2022-11-16T05:42:34.719Z,98641.94
2022-11-16T05:45:01.448Z,98641.94
2022-11-16T05:47:28.350Z,98640.50
2022-11-16T05:49:55.180Z,98638.16
2022-11-16T05:52:22.603Z,98633.72
2022-11-16T05:54:49.171Z,98629.81
2022-11-16T05:57:16.020Z,98634.00
2022-11-16T05:59:42.693Z,98637.22
2022-11-16T06:02:09.498Z,98635.06
2022-11-16T06:04:36.352Z,98624.84
2022-11-16T06:07:03.201Z,98634.22
2022-11-16T06:09:30.114Z,98631.81
2022-11-16T06:11:56.911Z,98629.03
2022-11-16T06:14:23.696Z,98626.28
2022-11-16T06:16:50.317Z,98616.22
2022-11-16T06:19:16.895Z,98628.03
2022-11-16T06:21:43.599Z,98621.69
2022-11-16T06:24:10.284Z,98617.13
2022-11-16T06:26:37.293Z,98619.72
2022-11-16T06:29:04.510Z,98601.22
2022-11-16T06:31:31.644Z,98603.50
2022-11-16T06:33:58.323Z,98575.22
2022-11-16T06:36:25.170Z,98601.03
2022-11-16T06:38:51.927Z,98604.97
2022-11-16T06:41:18.834Z,98590.22
2022-11-16T06:43:45.699Z,98585.25
2022-11-16T06:46:12.408Z,98583.66
2022-11-16T06:48:39.129Z,98568.44
2022-11-16T06:51:06.224Z,98568.88
2022-11-16T06:53:32.875Z,98563.66
2022-11-16T06:56:04.036Z,98552.41
2022-11-16T06:58:32.092Z,98549.53
2022-11-16T07:01:06.394Z,98538.69
2022-11-16T07:03:33.141Z,98532.63
2022-11-16T07:05:59.860Z,98534.41
2022-11-16T07:08:28.402Z,98535.66
2022-11-16T07:10:56.452Z,98526.19
2022-11-16T07:13:24.607Z,98531.16
2022-11-16T10:34:06.716Z,98524.78
2022-11-16T10:36:35.752Z,98527.09
2022-11-16T10:39:02.780Z,98514.53
2022-11-16T10:41:33.072Z,98515.44
2022-11-16T10:43:59.844Z,98508.25
2022-11-16T10:46:32.646Z,98502.19
2022-11-16T10:49:21.194Z,98508.66
2022-11-16T10:51:47.866Z,98503.59
2022-11-16T10:54:18.277Z,98492.97
2022-11-16T10:56:49.780Z,98490.50
2022-11-16T10:59:19.569Z,98478.28
2022-11-16T11:01:53.425Z,98477.38
2022-11-16T11:04:31.380Z,98474.31
2022-11-16T11:07:00.126Z,98467.06
2022-11-16T11:09:28.355Z,98459.22
2022-11-16T11:12:19.733Z,98456.59
2022-11-16T11:15:00.253Z,98448.09
2022-11-16T11:17:27.325Z,98433.88
2022-11-16T11:20:17.358Z,98453.53
2022-11-16T11:22:55.276Z,98438.25
2022-11-16T11:25:32.426Z,98440.03
2022-11-16T11:28:06.566Z,98448.69
2022-11-16T11:30:34.209Z,98433.38
2022-11-16T11:33:01.093Z,98442.38
2022-11-16T11:35:32.947Z,98443.16
2022-11-16T11:38:07.431Z,98434.50
2022-11-16T11:40:34.822Z,98425.31
2022-11-16T11:43:03.879Z,98427.38
2022-11-16T11:45:30.418Z,98436.78
2022-11-16T11:48:01.751Z,98437.63
2022-11-16T11:50:55.718Z,98441.06
2022-11-16T11:53:25.501Z,98440.47
2022-11-16T11:55:56.913Z,98438.31
2022-11-16T11:58:29.156Z,98443.31
2022-11-16T12:01:14.484Z,98445.56
2022-11-16T12:03:59.429Z,98453.28
2022-11-16T12:06:57.398Z,98452.22
2022-11-16T12:09:53.247Z,98452.47
2022-11-16T12:12:44.973Z,98431.66
2022-11-16T12:15:31.304Z,98434.06
2022-11-16T12:18:25.233Z,98440.41
2022-11-16T12:21:13.945Z,98428.47
2022-11-16T12:24:36.260Z,98446.75
2022-11-16T12:27:40.225Z,98435.16
2022-11-16T12:30:27.080Z,98426.19
2022-11-16T12:33:18.421Z,98428.84
2022-11-16T12:35:56.025Z,98429.75
2022-11-16T12:38:26.604Z,98428.25
2022-11-16T12:40:58.224Z,98414.63
2022-11-16T12:43:41.029Z,98423.22
2022-11-16T12:46:20.960Z,98425.00
2022-11-16T12:49:12.128Z,98429.75
2022-11-16T12:51:41.830Z,98421.25
2022-11-16T12:54:30.399Z,98432.22
2022-11-16T12:57:23.628Z,98426.25
2022-11-16T12:59:50.228Z,98447.97
2022-11-16T13:02:36.227Z,98434.75
2022-11-16T13:05:12.467Z,98435.91
2022-11-16T13:07:49.141Z,98423.91
2022-11-16T13:10:27.321Z,98429.41
2022-11-16T13:13:22.033Z,98422.47
2022-11-16T13:15:48.059Z,98429.53
2022-11-16T13:18:17.871Z,98427.59
2022-11-16T13:20:53.615Z,98423.16
2022-11-16T13:23:42.056Z,98422.41
2022-11-16T13:26:17.451Z,98414.72
2022-11-16T13:28:50.003Z,98423.34
2022-11-16T13:31:32.537Z,98432.53
2022-11-16T13:34:02.148Z,98436.38
2022-11-16T13:36:31.763Z,98425.94
2022-11-16T13:38:58.717Z,98437.59
2022-11-16T13:41:39.179Z,98427.22
2022-11-16T13:44:26.443Z,98424.09
2022-11-16T13:47:04.675Z,98430.66
2022-11-16T13:49:40.998Z,98426.41
2022-11-16T13:52:35.441Z,98420.03
2022-11-16T13:54:57.723Z,98419.16
2022-11-16T13:57:25.411Z,98422.47
2022-11-16T13:59:57.221Z,98433.53
2022-11-16T14:02:29.790Z,98421.63
2022-11-16T14:05:05.288Z,98430.41
2022-11-16T14:07:33.740Z,98427.81
2022-11-16T14:10:01.056Z,98438.94
2022-11-16T14:12:53.392Z,98430.41
2022-11-16T14:15:22.099Z,98421.38
2022-11-16T14:17:59.637Z,98437.31
2022-11-16T14:20:38.447Z,98435.88
2022-11-16T14:23:08.060Z,98431.63
2022-11-16T14:25:43.951Z,98416.38
2022-11-16T14:28:20.329Z,98419.00
2022-11-16T14:31:26.496Z,98421.88
2022-11-16T14:33:55.425Z,98436.38
2022-11-16T14:36:41.583Z,98424.13
2022-11-16T16:14:44.785Z,98418.06
2022-11-16T16:17:21.072Z,98443.53
2022-11-16T16:19:55.005Z,98453.63
2022-11-16T16:22:27.925Z,98468.03
2022-11-16T16:24:54.765Z,98460.63
2022-11-16T16:27:24.604Z,98464.00
2022-11-16T16:29:53.020Z,98451.13
2022-11-16T16:32:30.436Z,98445.34
2022-11-16T16:34:59.087Z,98445.34
2022-11-16T16:37:27.525Z,98450.53
2022-11-16T16:39:54.128Z,98449.78
2022-11-16T16:42:20.908Z,98446.91
2022-11-16T16:44:48.008Z,98439.22
2022-11-16T16:47:15.529Z,98440.66
2022-11-16T16:49:42.304Z,98451.81
2022-11-16T16:52:11.860Z,98441.28
2022-11-16T16:54:38.641Z,98440.88
2022-11-16T16:57:05.308Z,98468.47
2022-11-16T16:59:32.082Z,98441.56
2022-11-16T17:02:02.047Z,98444.59
2022-11-16T17:04:28.630Z,98447.13
2022-11-16T17:08:02.232Z,98427.06
2022-11-16T17:10:28.923Z,98441.06
2022-11-16T17:12:58.751Z,98444.19
2022-11-16T17:15:25.669Z,98427.97
2022-11-16T17:17:52.996Z,98443.66
2022-11-16T17:20:19.679Z,98435.91
2022-11-16T17:22:46.350Z,98437.69
2022-11-16T17:25:13.325Z,98431.47
2022-11-16T17:27:40.105Z,98439.25
2022-11-16T17:30:07.443Z,98436.50
2022-11-16T17:32:34.036Z,98463.06
2022-11-16T17:35:00.670Z,98449.25
2022-11-16T17:37:27.283Z,98451.81
2022-11-16T17:39:53.907Z,98449.56
2022-11-16T17:42:20.544Z,98456.19
2022-11-16T17:44:47.191Z,98449.78
2022-11-16T17:47:13.892Z,98477.97
2022-11-16T17:49:40.521Z,98457.19
2022-11-16T17:52:07.450Z,98457.41
2022-11-16T17:54:34.203Z,98448.88
2022-11-16T17:57:00.980Z,98459.81
2022-11-16T17:59:29.791Z,98453.75
2022-11-16T18:01:58.156Z,98450.50
2022-11-16T18:04:25.370Z,98445.41
2022-11-16T18:06:52.071Z,98446.09
2022-11-16T18:09:18.989Z,98447.25
2022-11-16T18:11:45.772Z,98458.50
2022-11-16T18:14:12.377Z,98454.16
2022-11-16T18:16:42.430Z,98442.94
2022-11-16T18:19:10.048Z,98451.16
2022-11-16T18:21:41.197Z,98444.84
2022-11-16T18:24:08.564Z,98445.72
2022-11-16T18:26:35.436Z,98444.88
2022-11-16T18:29:02.188Z,98436.59
2022-11-16T18:31:29.898Z,98441.69
2022-11-16T18:33:56.618Z,98433.34
2022-11-16T18:36:23.341Z,98437.69
2022-11-16T18:38:50.070Z,98440.19
2022-11-16T18:41:19.845Z,98441.00
2022-11-16T18:44:01.796Z,98426.44
2022-11-16T18:46:30.545Z,98446.31
2022-11-16T18:48:57.777Z,98452.00
2022-11-16T18:51:27.033Z,98454.00
2022-11-16T18:53:53.876Z,98446.13
2022-11-16T18:56:20.849Z,98447.00
2022-11-16T18:58:52.233Z,98440.34
2022-11-16T19:01:21.225Z,98451.78
2022-11-16T19:03:47.985Z,98446.59
2022-11-16T22:16:51.558Z,98477.78
2022-11-16T22:19:18.205Z,98482.50
2022-11-16T22:21:44.837Z,98476.97
2022-11-16T22:24:11.512Z,98477.13
2022-11-16T22:26:39.896Z,98477.84
2022-11-16T22:29:06.604Z,98482.03
2022-11-16T22:31:33.268Z,98479.91
2022-11-16T22:33:59.967Z,98488.53
2022-11-16T22:36:26.621Z,98491.97
2022-11-16T22:38:53.414Z,98479.88
2022-11-16T22:41:20.855Z,98483.31
2022-11-16T22:43:50.541Z,98484.03
2022-11-16T22:46:17.192Z,98487.41
2022-11-16T22:48:45.018Z,98478.75
2022-11-16T22:51:21.146Z,98497.41
2022-11-16T22:53:48.406Z,98487.50
2022-11-16T22:56:15.025Z,98490.72
2022-11-16T22:58:41.725Z,98474.69
2022-11-16T23:01:09.102Z,98486.06
2022-11-16T23:03:36.911Z,98491.75
2022-11-16T23:06:04.357Z,98473.16
2022-11-16T23:08:31.407Z,98482.50
2022-11-16T23:11:28.649Z,98486.75
2022-11-16T23:14:13.838Z,98479.75
2022-11-16T23:16:41.338Z,98458.56
2022-11-16T23:19:28.204Z,98481.66
2022-11-16T23:22:13.888Z,98497.09
2022-11-16T23:24:59.160Z,98486.09
2022-11-16T23:27:51.148Z,98500.81
2022-11-16T23:30:18.067Z,98502.53
2022-11-16T23:32:44.755Z,98487.94
2022-11-16T23:35:12.064Z,98493.13
2022-11-16T23:37:58.386Z,98489.63
2022-11-16T23:40:29.768Z,98471.00
2022-11-16T23:43:15.535Z,98478.69
2022-11-16T23:45:42.326Z,98466.56
2022-11-16T23:48:10.177Z,98459.59
2022-11-16T23:50:36.904Z,98460.47
2022-11-16T23:53:04.622Z,98451.09
2022-11-16T23:55:35.255Z,98447.91
2022-11-16T23:58:02.083Z,98462.50
